Airport Name : Astana Intl

Other Name : Astana Intl

ICAO : UACC

IATA : TSE

FAA :

Latitude : 51.022222

Longitude : 71.466944

Country : Kazakhstan

Local Date and Time : 20 Sep 2020 03:01

 

TAF (Terminal Aerodrome Forecast)

TAF UACC 191703Z 1918/2018 18006MPS CAVOK TX21/2010Z TN06/2000Z BECMG 2002/2004 18008MPS SCT020 BKN100 TEMPO 2004/2013 19010G15MPS FEW030CB TEMPO 2013/2018 FEW020CB

 

METAR (METeorological Aerodrome Report)

UACC 192030Z 18005MPS CAVOK 08/05 Q1018 R22/0///70 NOSIG RMK QFE732/0976

UACC 192000Z 18005MPS CAVOK 09/05 Q1018 R22/0///70 NOSIG RMK QFE732/0976

UACC 191930Z 18005MPS CAVOK 09/05 Q1019 R22/0///70 NOSIG RMK QFE732/0977

UACC 191900Z 18005MPS CAVOK 09/05 Q1019 R22/0///70 NOSIG RMK QFE732/0977

UACC 191830Z 18004MPS CAVOK 09/05 Q1019 R22/0///70 NOSIG RMK QFE733/0977

UACC 191800Z 18004MPS CAVOK 10/05 Q1019 R22/0///70 NOSIG RMK QFE733/0977

UACC 191730Z 18004MPS CAVOK 10/06 Q1019 R22/0///70 NOSIG RMK QFE733/0977

To Charter a Jet Click here.